createdAt,value
2022-09-07T00:00:32.881Z,8.77
2022-09-07T00:03:01.980Z,8.50
2022-09-07T00:05:31.537Z,7.73
2022-09-07T00:08:01.044Z,7.63
2022-09-07T00:10:30.047Z,7.47
2022-09-07T00:12:59.074Z,7.50
2022-09-07T00:15:27.997Z,7.30
2022-09-07T00:17:58.547Z,7.20
2022-09-07T00:20:27.870Z,6.70
2022-09-07T00:22:56.862Z,7.07
2022-09-07T00:25:26.089Z,7.00
2022-09-07T00:27:55.003Z,6.90
2022-09-07T00:30:23.980Z,13.33
2022-09-07T00:32:52.894Z,12.13
2022-09-07T00:35:23.197Z,36.67
2022-09-07T00:37:52.292Z,46.40
2022-09-07T00:40:21.199Z,33.70
2022-09-07T00:42:50.300Z,19.63
2022-09-07T00:45:21.044Z,11.07
2022-09-07T00:47:57.334Z,7.87
2022-09-07T00:50:32.227Z,7.97
2022-09-07T00:53:05.621Z,7.33
2022-09-07T00:55:36.753Z,6.97
2022-09-07T00:58:07.717Z,6.97
2022-09-07T01:00:37.079Z,7.27
2022-09-07T01:03:06.782Z,82.60
2022-09-07T01:05:42.823Z,34.43
2022-09-07T01:08:13.454Z,11.33
2022-09-07T01:10:42.560Z,7.27
2022-09-07T01:13:11.791Z,9.83
2022-09-07T01:15:46.544Z,13.67
2022-09-07T01:18:25.717Z,16.60
2022-09-07T01:21:27.390Z,10.20
2022-09-07T01:24:41.700Z,20.47
2022-09-07T01:27:50.179Z,17.33
2022-09-07T01:30:21.015Z,62.30
2022-09-07T01:33:08.224Z,12.97
2022-09-07T01:35:44.812Z,15.97
2022-09-07T01:38:22.884Z,10.43
2022-09-07T01:40:58.917Z,12.13
2022-09-07T01:43:36.911Z,9.07
2022-09-07T01:46:10.247Z,9.73
2022-09-07T01:48:42.325Z,9.80
2022-09-07T01:51:14.538Z,9.43
2022-09-07T01:53:51.961Z,7.83
2022-09-07T01:56:28.870Z,8.27
2022-09-07T01:59:02.616Z,10.77
2022-09-07T02:01:36.648Z,7.43
2022-09-07T02:04:10.247Z,6.60
2022-09-07T02:06:44.555Z,6.20
2022-09-07T02:09:18.526Z,6.50
2022-09-07T02:11:50.429Z,6.90
2022-09-07T02:14:26.129Z,6.83
2022-09-07T02:17:01.762Z,6.60
2022-09-07T02:19:37.001Z,6.80
2022-09-07T02:22:10.343Z,6.47
2022-09-07T02:24:43.066Z,7.10
2022-09-07T02:27:16.550Z,6.07
2022-09-07T02:29:47.283Z,5.43
2022-09-07T02:32:16.293Z,5.97
2022-09-07T02:34:46.346Z,6.67
2022-09-07T02:37:18.727Z,5.93
2022-09-07T02:39:48.117Z,5.10
2022-09-07T02:42:17.011Z,5.30
2022-09-07T02:44:48.441Z,5.70
2022-09-07T02:47:32.735Z,5.23
2022-09-07T02:50:51.538Z,5.90
2022-09-07T02:53:41.620Z,5.53
2022-09-07T02:56:21.514Z,5.23
2022-09-07T02:58:57.114Z,5.13
2022-09-07T03:01:38.949Z,5.03
2022-09-07T03:04:14.124Z,4.97
2022-09-07T03:06:46.826Z,5.67
2022-09-07T03:09:20.642Z,5.50
2022-09-07T03:11:50.481Z,5.33
2022-09-07T03:14:21.744Z,5.53
2022-09-07T03:16:54.986Z,5.10
2022-09-07T03:19:24.210Z,5.83
2022-09-07T03:21:53.202Z,5.70
2022-09-07T03:24:22.185Z,5.70
2022-09-07T03:26:52.144Z,5.87
2022-09-07T03:29:21.485Z,6.67
2022-09-07T03:31:52.045Z,6.20
2022-09-07T03:34:21.049Z,6.60
2022-09-07T03:36:49.951Z,6.47
2022-09-07T03:39:21.167Z,7.67
2022-09-07T03:41:50.163Z,7.10
2022-09-07T03:44:19.168Z,8.10
2022-09-07T03:46:48.184Z,8.17
2022-09-07T03:49:19.236Z,8.20
2022-09-07T03:51:48.360Z,9.07
2022-09-07T03:54:17.272Z,9.03
2022-09-07T03:56:46.309Z,8.30
2022-09-07T03:59:15.365Z,8.03
2022-09-07T04:01:46.719Z,8.27
2022-09-07T04:04:16.128Z,8.70
2022-09-07T04:06:46.596Z,8.97
2022-09-07T04:09:16.545Z,9.20
2022-09-07T04:11:45.619Z,10.53
2022-09-07T04:14:14.802Z,10.93
2022-09-07T04:16:45.688Z,11.60
2022-09-07T04:19:14.819Z,11.77
2022-09-07T04:21:44.546Z,12.00
2022-09-07T04:24:15.151Z,12.47
2022-09-07T04:26:44.813Z,13.10
2022-09-07T04:29:14.659Z,13.53
2022-09-07T04:31:43.885Z,14.57
2022-09-07T04:34:13.332Z,15.73
2022-09-07T04:36:42.457Z,15.77
2022-09-07T04:39:13.867Z,15.40
2022-09-07T04:41:43.164Z,15.00
2022-09-07T04:44:16.616Z,15.60
2022-09-07T04:46:46.061Z,14.90
2022-09-07T04:49:15.063Z,15.17
2022-09-07T04:51:44.578Z,15.03
2022-09-07T04:54:14.900Z,15.23
2022-09-07T04:56:43.760Z,14.33
2022-09-07T04:59:12.806Z,14.63
2022-09-07T05:01:42.113Z,13.57
2022-09-07T05:04:11.203Z,14.80
2022-09-07T05:06:40.374Z,13.57
2022-09-07T05:09:09.379Z,12.50
2022-09-07T05:11:39.881Z,12.43
2022-09-07T05:14:09.181Z,13.13
2022-09-07T05:16:38.139Z,13.70
2022-09-07T05:19:07.501Z,12.67
2022-09-07T05:21:37.005Z,12.90
2022-09-07T05:24:07.040Z,12.53
2022-09-07T05:26:41.915Z,12.67
2022-09-07T05:32:01.287Z,12.20
2022-09-07T05:34:30.764Z,11.80
2022-09-07T05:37:00.402Z,11.80
2022-09-07T05:39:29.704Z,12.30
2022-09-07T05:42:00.335Z,11.97
2022-09-07T05:44:46.281Z,13.20
2022-09-07T05:47:33.995Z,12.27
2022-09-07T05:50:03.033Z,12.87
2022-09-07T05:52:32.049Z,12.43
2022-09-07T05:55:19.396Z,12.40
2022-09-07T05:57:51.578Z,11.77
2022-09-07T06:00:39.414Z,10.60
2022-09-07T06:03:08.606Z,10.67
2022-09-07T06:05:37.745Z,10.07
2022-09-07T06:08:06.901Z,9.00
2022-09-07T06:10:44.233Z,7.90
2022-09-07T06:13:15.416Z,7.37
2022-09-07T06:15:44.556Z,8.43
2022-09-07T06:18:15.002Z,8.20
2022-09-07T06:21:04.730Z,7.83
2022-09-07T06:23:34.159Z,7.90
2022-09-07T06:26:03.351Z,8.30
2022-09-07T06:28:35.228Z,8.17
2022-09-07T06:31:05.443Z,7.93
2022-09-07T06:33:34.837Z,8.43
2022-09-07T06:36:05.714Z,8.20
2022-09-07T06:38:37.131Z,8.60
2022-09-07T06:43:59.971Z,8.13
2022-09-07T06:47:03.251Z,8.93
2022-09-07T06:49:33.042Z,8.43
2022-09-07T06:52:02.018Z,10.27
2022-09-07T06:57:20.483Z,8.97
2022-09-07T06:59:50.998Z,20.90
2022-09-07T07:02:19.984Z,8.53
2022-09-07T07:04:49.155Z,8.10
2022-09-07T07:07:18.305Z,10.90
2022-09-07T07:09:47.220Z,10.00
2022-09-07T07:14:45.112Z,10.13
2022-09-07T07:17:15.779Z,10.27
2022-09-07T07:19:44.821Z,10.30
2022-09-07T07:22:35.942Z,14.43
2022-09-07T07:25:03.521Z,12.53
2022-09-07T07:27:32.761Z,13.90
2022-09-07T07:30:01.645Z,12.83
2022-09-07T07:32:32.090Z,12.93
2022-09-07T07:35:01.631Z,11.30
2022-09-07T07:37:34.707Z,11.13
2022-09-07T07:40:23.444Z,11.23
2022-09-07T07:42:53.504Z,10.57
2022-09-07T07:48:14.941Z,12.67
2022-09-07T07:50:43.846Z,13.17
2022-09-07T07:56:02.409Z,14.23
2022-09-07T07:58:32.451Z,11.27
2022-09-07T08:01:04.408Z,15.33
2022-09-07T08:03:37.633Z,17.90
2022-09-07T08:06:08.574Z,18.77
2022-09-07T08:08:38.357Z,38.07
2022-09-07T08:11:09.735Z,15.77
2022-09-07T08:13:40.577Z,20.00
2022-09-07T08:16:10.644Z,15.17
2022-09-07T08:18:46.372Z,18.40
2022-09-07T08:21:17.673Z,25.20
2022-09-07T08:23:46.887Z,20.17
2022-09-07T08:26:16.249Z,39.80
2022-09-07T08:28:46.463Z,35.73
2022-09-07T08:31:17.398Z,47.53
2022-09-07T08:33:47.986Z,22.57
2022-09-07T08:36:35.801Z,36.80
2022-09-07T08:39:05.521Z,25.73
2022-09-07T08:41:47.326Z,13.90
2022-09-07T08:44:23.714Z,11.60
2022-09-07T08:46:57.485Z,12.53
2022-09-07T08:49:35.054Z,12.03
2022-09-07T08:52:07.222Z,10.77
2022-09-07T08:54:37.106Z,10.93
2022-09-07T08:57:21.542Z,10.43
2022-09-07T08:59:55.667Z,15.67
2022-09-07T09:02:28.456Z,12.77
2022-09-07T09:08:02.693Z,11.80
2022-09-07T09:10:41.388Z,11.17
2022-09-07T09:13:19.519Z,9.70
2022-09-07T09:15:56.133Z,11.10
2022-09-07T09:18:43.664Z,10.77
2022-09-07T09:21:19.011Z,10.50
2022-09-07T09:23:51.783Z,12.80
2022-09-07T09:26:25.579Z,11.70
2022-09-07T09:28:55.260Z,10.03
2022-09-07T09:31:27.911Z,9.07
2022-09-07T09:34:11.464Z,11.93
2022-09-07T09:36:47.561Z,10.00
2022-09-07T09:39:32.543Z,12.30
2022-09-07T09:42:15.944Z,10.80
2022-09-07T09:44:46.062Z,11.17
2022-09-07T09:47:30.599Z,10.90
2022-09-07T09:50:02.735Z,9.70
2022-09-07T09:52:47.821Z,12.57
2022-09-07T09:55:35.939Z,11.47
2022-09-07T10:03:56.048Z,19.17
2022-09-07T10:06:26.929Z,17.67
2022-09-07T10:09:00.862Z,16.47
2022-09-07T10:14:37.705Z,15.47
2022-09-07T10:17:14.708Z,19.90
2022-09-07T10:19:45.176Z,10.87
2022-09-07T10:22:31.580Z,16.93
2022-09-07T10:25:03.307Z,10.13
2022-09-07T10:27:36.135Z,8.70
2022-09-07T10:30:11.463Z,18.43
2022-09-07T10:32:58.357Z,22.73
2022-09-07T10:35:30.323Z,16.50
2022-09-07T10:38:10.913Z,20.37
2022-09-07T10:40:45.662Z,25.97
2022-09-07T10:43:21.430Z,23.07
2022-09-07T10:46:11.231Z,16.60
2022-09-07T10:48:48.162Z,10.30
2022-09-07T10:51:20.670Z,6.20
2022-09-07T10:57:02.132Z,6.17
2022-09-07T11:03:24.494Z,6.30
2022-09-07T11:05:39.922Z,5.50
2022-09-07T11:08:21.512Z,5.47
2022-09-07T11:10:59.148Z,5.67
2022-09-07T11:13:44.942Z,6.20
2022-09-07T11:19:39.731Z,5.57
2022-09-07T11:22:20.680Z,5.40
2022-09-07T11:27:49.912Z,6.23
2022-09-07T11:30:26.460Z,5.57
2022-09-07T11:33:01.393Z,5.50
2022-09-07T11:35:46.095Z,5.50
2022-09-07T11:38:32.595Z,5.77
2022-09-07T11:41:15.200Z,5.43
2022-09-07T11:43:47.210Z,5.40
2022-09-07T11:46:23.276Z,5.23
2022-09-07T11:48:56.111Z,6.43
2022-09-07T11:51:32.830Z,6.10
2022-09-07T11:54:07.210Z,6.03
2022-09-07T11:56:45.699Z,5.77
2022-09-07T11:59:28.421Z,5.40
2022-09-07T12:02:14.114Z,5.90
2022-09-07T12:05:03.257Z,5.37
2022-09-07T12:07:47.613Z,5.83
2022-09-07T12:10:42.289Z,5.83
2022-09-07T12:13:49.888Z,6.03
2022-09-07T12:16:59.356Z,6.53
2022-09-07T12:19:30.415Z,5.80
2022-09-07T12:22:01.225Z,5.93
2022-09-07T12:24:48.773Z,7.33
2022-09-07T12:27:44.900Z,6.60
2022-09-07T12:30:51.823Z,5.63
2022-09-07T12:33:32.836Z,5.37
2022-09-07T12:36:04.177Z,5.20
2022-09-07T12:39:06.433Z,5.80
2022-09-07T12:41:47.847Z,5.13
2022-09-07T12:44:19.895Z,5.10
2022-09-07T12:47:00.504Z,5.70
2022-09-07T12:49:58.111Z,5.57
2022-09-07T12:53:05.886Z,5.57
2022-09-07T12:56:18.143Z,5.60
2022-09-07T12:59:02.327Z,6.00
2022-09-07T13:01:44.550Z,6.80
2022-09-07T13:04:43.609Z,8.97
2022-09-07T13:07:30.968Z,5.70
2022-09-07T13:10:01.373Z,6.03
2022-09-07T13:12:54.785Z,5.70
2022-09-07T13:15:42.060Z,5.13
2022-09-07T13:18:42.640Z,5.10
2022-09-07T13:21:33.605Z,5.13
2022-09-07T13:24:46.416Z,6.30
2022-09-07T13:27:51.511Z,8.13
2022-09-07T13:30:30.208Z,5.60
2022-09-07T13:33:53.326Z,5.23
2022-09-07T13:36:36.327Z,5.67
2022-09-07T13:39:10.326Z,5.80
2022-09-07T13:41:44.842Z,5.17
2022-09-07T13:44:26.456Z,5.63
2022-09-07T13:47:13.294Z,5.53
2022-09-07T13:50:00.182Z,5.70
2022-09-07T13:52:41.435Z,5.67
2022-09-07T13:55:26.984Z,5.10
2022-09-07T13:58:11.911Z,5.47
2022-09-07T14:00:55.091Z,6.53
2022-09-07T14:03:25.898Z,6.90
2022-09-07T14:06:30.189Z,4.60
2022-09-07T14:09:03.235Z,5.20
2022-09-07T14:11:41.445Z,5.70
2022-09-07T14:14:31.170Z,7.00
2022-09-07T14:17:06.189Z,6.80
2022-09-07T14:19:39.723Z,6.03
2022-09-07T14:22:14.013Z,5.83
2022-09-07T14:24:49.530Z,6.53
2022-09-07T14:27:23.067Z,5.93
2022-09-07T14:29:52.680Z,8.53
2022-09-07T14:32:25.239Z,7.60
2022-09-07T14:34:54.294Z,6.13
2022-09-07T14:37:24.553Z,7.43
2022-09-07T14:39:56.490Z,5.47
2022-09-07T14:42:26.855Z,5.60
2022-09-07T14:45:20.396Z,5.50
2022-09-07T14:47:52.312Z,5.73
2022-09-07T14:50:24.568Z,5.00
2022-09-07T14:53:34.466Z,5.37
2022-09-07T14:56:11.235Z,5.00
2022-09-07T14:58:58.983Z,5.07
2022-09-07T15:01:44.124Z,12.50
2022-09-07T15:04:31.901Z,10.57
2022-09-07T15:07:01.332Z,16.33
2022-09-07T15:09:36.198Z,7.57
2022-09-07T15:12:19.389Z,5.10
2022-09-07T15:14:49.114Z,5.20
2022-09-07T15:20:36.625Z,24.33
2022-09-07T15:23:06.954Z,37.40
2022-09-07T15:25:36.893Z,14.03
2022-09-07T15:28:08.105Z,17.83
2022-09-07T15:30:37.215Z,16.23
2022-09-07T15:33:06.258Z,15.87
2022-09-07T15:35:35.329Z,8.83
2022-09-07T15:38:05.454Z,6.57
2022-09-07T15:41:21.977Z,6.63
2022-09-07T15:43:48.176Z,8.13
2022-09-07T15:46:17.236Z,6.30
2022-09-07T15:48:53.098Z,6.50
2022-09-07T15:54:14.386Z,7.20
2022-09-07T15:57:48.016Z,5.17
2022-09-07T15:59:34.731Z,6.73
2022-09-07T16:02:04.174Z,6.90
2022-09-07T16:04:52.908Z,8.00
2022-09-07T16:08:24.435Z,7.30
2022-09-07T16:10:12.439Z,7.07
2022-09-07T16:15:32.525Z,6.83
2022-09-07T16:18:01.731Z,27.73
2022-09-07T16:20:32.234Z,24.77
2022-09-07T16:23:17.450Z,10.50
2022-09-07T16:25:58.243Z,10.03
2022-09-07T16:28:28.174Z,21.03
2022-09-07T16:30:58.687Z,14.37
2022-09-07T16:33:36.127Z,8.60
2022-09-07T16:36:09.191Z,23.23
2022-09-07T16:38:47.418Z,37.37
2022-09-07T16:41:18.084Z,15.17
2022-09-07T16:43:47.686Z,16.00
2022-09-07T16:46:19.889Z,10.20
2022-09-07T16:49:08.804Z,36.67
2022-09-07T16:51:38.419Z,31.93
2022-09-07T16:54:09.002Z,51.63
2022-09-07T16:56:39.272Z,24.47
2022-09-07T16:59:10.822Z,42.63
2022-09-07T17:01:41.923Z,25.77
2022-09-07T17:04:11.752Z,25.07
2022-09-07T17:06:41.698Z,21.87
2022-09-07T17:09:12.131Z,35.37
2022-09-07T17:11:41.647Z,48.73
2022-09-07T17:14:10.653Z,35.60
2022-09-07T17:16:43.051Z,24.80
2022-09-07T17:19:32.222Z,42.53
2022-09-07T17:22:05.422Z,48.87
2022-09-07T17:24:34.691Z,38.10
2022-09-07T17:27:05.574Z,23.27
2022-09-07T17:29:37.145Z,15.33
2022-09-07T17:32:25.022Z,16.83
2022-09-07T17:34:55.691Z,17.90
2022-09-07T17:37:25.640Z,52.17
2022-09-07T17:39:54.840Z,44.93
2022-09-07T17:42:26.303Z,36.27
2022-09-07T17:45:14.604Z,48.53
2022-09-07T17:47:45.041Z,54.77
2022-09-07T17:50:13.910Z,58.37
2022-09-07T17:52:45.776Z,46.17
2022-09-07T17:55:15.482Z,56.23
2022-09-07T17:57:44.303Z,50.80
2022-09-07T18:00:14.947Z,52.43
2022-09-07T18:03:03.933Z,41.97
2022-09-07T18:05:35.179Z,34.67
2022-09-07T18:08:04.735Z,70.03
2022-09-07T18:13:46.299Z,22.53
2022-09-07T18:16:18.165Z,44.93
2022-09-07T18:18:49.586Z,45.23
2022-09-07T18:21:21.183Z,53.00
2022-09-07T18:23:53.803Z,37.43
2022-09-07T18:26:22.767Z,31.13
2022-09-07T18:29:18.905Z,34.53
2022-09-07T18:31:41.398Z,30.33
2022-09-07T18:34:12.125Z,29.70
2022-09-07T18:36:43.949Z,29.43
2022-09-07T18:39:15.586Z,23.20
2022-09-07T18:41:45.027Z,32.67
2022-09-07T18:47:06.702Z,62.67
2022-09-07T18:49:37.287Z,62.53
2022-09-07T18:54:55.644Z,48.83
2022-09-07T18:57:25.187Z,41.80
2022-09-07T18:59:54.538Z,57.17
2022-09-07T19:02:23.603Z,66.13
2022-09-07T19:07:43.716Z,62.23
2022-09-07T19:10:14.735Z,57.33
2022-09-07T19:12:46.135Z,54.23
2022-09-07T19:15:15.925Z,49.13
2022-09-07T19:17:45.933Z,40.20
2022-09-07T19:20:16.537Z,30.10
2022-09-07T19:22:45.451Z,28.83
2022-09-07T19:25:14.406Z,43.07
2022-09-07T19:27:43.408Z,42.37
2022-09-07T19:30:17.598Z,41.60
2022-09-07T19:32:46.911Z,39.33
2022-09-07T19:35:17.443Z,71.63
2022-09-07T19:37:54.343Z,85.70
2022-09-07T19:40:23.511Z,85.07
2022-09-07T19:42:52.385Z,83.33
2022-09-07T19:45:21.327Z,73.73
2022-09-07T19:47:50.861Z,75.30
2022-09-07T19:50:22.612Z,78.47
2022-09-07T19:52:51.730Z,88.83
2022-09-07T19:55:21.094Z,79.10
2022-09-07T19:57:51.650Z,76.70
2022-09-07T20:00:20.974Z,72.63
2022-09-07T20:02:54.427Z,56.30
2022-09-07T20:05:29.358Z,74.07
2022-09-07T20:07:58.650Z,90.40
2022-09-07T20:10:27.513Z,85.33
2022-09-07T20:12:56.536Z,104.33
2022-09-07T20:15:26.312Z,110.03
2022-09-07T20:17:55.443Z,107.70
2022-09-07T20:20:25.847Z,106.17
2022-09-07T20:22:55.092Z,95.03
2022-09-07T20:25:24.105Z,90.33
2022-09-07T20:27:52.972Z,96.10
2022-09-07T20:30:24.993Z,81.90
2022-09-07T20:32:54.237Z,67.90
2022-09-07T20:35:24.684Z,83.70
2022-09-07T20:37:53.537Z,90.03
2022-09-07T20:40:22.507Z,89.87
2022-09-07T20:42:51.528Z,78.23
2022-09-07T20:45:20.628Z,67.80
2022-09-07T20:47:49.616Z,55.07
2022-09-07T20:50:18.488Z,52.10
2022-09-07T20:52:49.025Z,43.60
2022-09-07T20:55:18.252Z,42.30
2022-09-07T20:57:47.128Z,20.03
2022-09-07T21:00:16.408Z,21.53
2022-09-07T21:02:45.218Z,34.33
2022-09-07T21:05:14.290Z,77.80
2022-09-07T21:07:43.458Z,98.43
2022-09-07T21:10:14.630Z,105.97
2022-09-07T21:12:43.620Z,67.30
2022-09-07T21:15:12.940Z,47.40
2022-09-07T21:17:42.010Z,53.93
2022-09-07T21:20:11.770Z,63.37
2022-09-07T21:22:40.885Z,52.60
2022-09-07T21:25:10.816Z,32.53
2022-09-07T21:27:41.286Z,23.33
2022-09-07T21:30:11.281Z,21.23
2022-09-07T21:32:40.729Z,37.73
2022-09-07T21:35:11.085Z,48.23
2022-09-07T21:37:41.119Z,60.93
2022-09-07T21:40:11.255Z,40.87
2022-09-07T21:42:42.137Z,35.93
2022-09-07T21:45:12.186Z,24.70
2022-09-07T21:47:41.204Z,23.57
2022-09-07T21:50:10.493Z,27.10
2022-09-07T21:52:39.471Z,33.57
2022-09-07T21:55:09.652Z,44.37
2022-09-07T21:57:41.634Z,74.40
2022-09-07T22:00:12.489Z,100.53
2022-09-07T22:02:41.594Z,99.30
2022-09-07T22:05:11.380Z,101.17
2022-09-07T22:07:40.403Z,85.10
2022-09-07T22:10:11.575Z,62.40
2022-09-07T22:12:42.315Z,55.83
2022-09-07T22:15:11.918Z,30.00
2022-09-07T22:17:45.670Z,22.70
2022-09-07T22:20:15.295Z,17.60
2022-09-07T22:22:45.691Z,16.90
2022-09-07T22:25:14.885Z,25.07
2022-09-07T22:27:45.246Z,33.00
2022-09-07T22:30:14.797Z,56.43
2022-09-07T22:32:47.802Z,77.10
2022-09-07T22:35:17.425Z,110.03
2022-09-07T22:37:46.509Z,100.03
2022-09-07T22:40:15.531Z,66.80
2022-09-07T22:42:45.880Z,42.20
2022-09-07T22:45:14.781Z,32.70
2022-09-07T22:47:43.754Z,27.30
2022-09-07T22:50:13.038Z,26.93
2022-09-07T22:52:41.907Z,25.00
2022-09-07T22:55:29.611Z,21.30
2022-09-07T22:57:59.949Z,19.20
2022-09-07T23:00:28.917Z,19.27
2022-09-07T23:02:57.794Z,19.93
2022-09-07T23:05:26.815Z,19.70
2022-09-07T23:07:56.188Z,20.27
2022-09-07T23:10:25.421Z,17.50
2022-09-07T23:12:55.290Z,16.37
2022-09-07T23:15:25.801Z,16.23
2022-09-07T23:17:58.331Z,18.70
2022-09-07T23:20:27.466Z,18.53
2022-09-07T23:22:56.322Z,21.03
2022-09-07T23:25:26.045Z,17.63
2022-09-07T23:27:54.891Z,18.53
2022-09-07T23:30:25.223Z,19.10
2022-09-07T23:32:54.134Z,18.93
2022-09-07T23:35:23.187Z,19.80
2022-09-07T23:37:52.364Z,14.37
2022-09-07T23:40:21.753Z,12.07
2022-09-07T23:42:50.851Z,12.33
2022-09-07T23:45:19.840Z,10.97
2022-09-07T23:47:50.190Z,10.27
2022-09-07T23:50:19.527Z,14.33
2022-09-07T23:52:48.441Z,37.07
2022-09-07T23:55:17.604Z,58.80
2022-09-07T23:57:46.452Z,67.53
